createdAt,value
2019-02-08T00:01:31.350Z,11.27
2019-02-08T00:04:00.830Z,13.67
2019-02-08T00:06:30.317Z,10.20
2019-02-08T00:08:59.685Z,12.53
2019-02-08T00:11:29.034Z,10.33
2019-02-08T00:13:58.311Z,9.07
2019-02-08T00:16:28.582Z,11.63
2019-02-08T00:18:57.946Z,11.07
2019-02-08T00:21:30.283Z,14.13
2019-02-08T00:23:59.647Z,12.53
2019-02-08T00:26:28.999Z,10.23
2019-02-08T00:28:58.350Z,12.67
2019-02-08T00:31:28.041Z,9.20
2019-02-08T00:33:57.391Z,10.93
2019-02-08T00:36:26.679Z,8.40
2019-02-08T00:38:55.982Z,9.17
2019-02-08T00:41:25.349Z,11.23
2019-02-08T00:43:54.680Z,8.80
2019-02-08T00:46:24.326Z,9.97
2019-02-08T00:48:53.614Z,11.37
2019-02-08T00:51:23.000Z,13.70
2019-02-08T00:53:52.288Z,8.40
2019-02-08T00:56:21.647Z,13.03
2019-02-08T00:58:51.017Z,8.40
2019-02-08T01:01:20.365Z,10.43
2019-02-08T01:03:49.718Z,6.43
2019-02-08T01:06:19.042Z,9.10
2019-02-08T01:08:48.309Z,7.73
2019-02-08T01:11:17.646Z,7.70
2019-02-08T01:13:47.001Z,7.93
2019-02-08T01:16:16.309Z,8.70
2019-02-08T01:18:46.001Z,8.87
2019-02-08T01:21:15.364Z,8.70
2019-02-08T01:23:44.727Z,8.10
2019-02-08T01:26:13.934Z,11.43
2019-02-08T01:28:43.283Z,9.47
2019-02-08T01:31:12.726Z,7.63
2019-02-08T01:36:37.888Z,8.40
2019-02-08T01:39:08.545Z,8.10
2019-02-08T01:41:37.792Z,9.47
2019-02-08T01:44:07.188Z,6.63
2019-02-08T01:46:36.536Z,10.40
2019-02-08T01:49:05.902Z,8.63
2019-02-08T01:51:35.282Z,9.80
2019-02-08T01:54:04.876Z,8.67
2019-02-08T01:56:34.247Z,10.03
2019-02-08T01:59:03.581Z,8.23
2019-02-08T02:01:32.863Z,7.10
2019-02-08T02:04:02.245Z,8.70
2019-02-08T02:06:31.567Z,9.67
2019-02-08T02:09:01.054Z,8.93
2019-02-08T02:11:30.412Z,10.03
2019-02-08T02:13:59.804Z,8.27
2019-02-08T02:16:29.136Z,7.97
2019-02-08T02:18:58.503Z,6.33
2019-02-08T02:21:27.912Z,8.97
2019-02-08T02:23:57.272Z,7.20
2019-02-08T02:26:45.663Z,7.93
2019-02-08T02:29:15.001Z,10.43
2019-02-08T02:31:44.324Z,10.63
2019-02-08T02:34:13.709Z,9.93
2019-02-08T02:36:43.015Z,9.33
2019-02-08T02:39:12.401Z,11.53
2019-02-08T02:41:41.707Z,8.47
2019-02-08T02:44:11.030Z,8.43
2019-02-08T02:46:40.285Z,6.27
2019-02-08T02:49:09.633Z,7.27
2019-02-08T02:51:38.986Z,7.47
2019-02-08T02:54:08.349Z,8.50
2019-02-08T02:56:37.672Z,7.93
2019-02-08T02:59:07.499Z,9.70
2019-02-08T03:01:36.962Z,11.40
2019-02-08T03:04:06.590Z,7.17
2019-02-08T03:06:35.980Z,11.00
2019-02-08T03:09:08.928Z,11.93
2019-02-08T03:11:38.220Z,8.07
2019-02-08T03:14:07.558Z,6.53
2019-02-08T03:16:36.933Z,8.50
2019-02-08T03:19:06.228Z,10.77
2019-02-08T03:21:35.504Z,10.70
2019-02-08T03:24:12.726Z,8.83
2019-02-08T03:26:36.043Z,9.33
2019-02-08T03:29:05.409Z,10.07
2019-02-08T03:31:34.748Z,6.70
2019-02-08T03:34:04.432Z,9.57
2019-02-08T03:36:33.759Z,11.07
2019-02-08T03:39:04.434Z,9.03
2019-02-08T03:41:33.897Z,7.73
2019-02-08T03:44:03.246Z,13.57
2019-02-08T03:46:32.604Z,6.83
2019-02-08T03:49:01.951Z,8.43
2019-02-08T03:51:31.342Z,8.73
2019-02-08T03:54:00.664Z,9.07
2019-02-08T03:56:29.939Z,9.70
2019-02-08T03:58:59.303Z,9.57
2019-02-08T04:01:28.714Z,7.93
2019-02-08T04:04:19.054Z,7.70
2019-02-08T04:06:48.396Z,7.27
2019-02-08T04:09:17.747Z,11.60
2019-02-08T04:11:47.138Z,11.30
2019-02-08T04:14:16.463Z,10.10
2019-02-08T04:16:45.828Z,8.93
2019-02-08T04:19:15.175Z,8.27
2019-02-08T04:21:44.568Z,9.43
2019-02-08T04:24:13.943Z,7.47
2019-02-08T04:26:43.325Z,7.17
2019-02-08T04:29:12.821Z,6.57
2019-02-08T04:31:42.519Z,9.60
2019-02-08T04:34:12.082Z,10.03
2019-02-08T04:36:41.373Z,9.03
2019-02-08T04:39:10.789Z,8.53
2019-02-08T04:41:40.189Z,10.70
2019-02-08T04:44:09.556Z,7.83
2019-02-08T04:46:38.926Z,6.97
2019-02-08T04:49:08.278Z,10.80
2019-02-08T04:51:37.673Z,7.43
2019-02-08T04:54:07.619Z,10.03
2019-02-08T04:56:37.028Z,11.20
2019-02-08T04:59:06.371Z,7.57
2019-02-08T05:01:35.705Z,11.43
2019-02-08T05:04:05.479Z,8.80
2019-02-08T05:06:34.847Z,7.97
2019-02-08T05:09:06.295Z,10.73
2019-02-08T05:11:35.655Z,12.00
2019-02-08T05:14:05.192Z,10.37
2019-02-08T05:16:34.511Z,14.57
2019-02-08T05:19:04.016Z,9.77
2019-02-08T05:21:33.357Z,16.80
2019-02-08T05:24:02.724Z,12.43
2019-02-08T05:26:32.112Z,12.87
2019-02-08T05:29:01.509Z,11.00
2019-02-08T05:31:30.908Z,14.13
2019-02-08T05:34:00.220Z,13.27
2019-02-08T05:36:29.588Z,8.93
2019-02-08T05:38:58.964Z,10.47
2019-02-08T05:41:28.298Z,10.37
2019-02-08T05:43:57.678Z,15.83
2019-02-08T05:46:27.042Z,14.43
2019-02-08T05:48:56.449Z,10.13
2019-02-08T05:51:25.811Z,10.30
2019-02-08T05:53:55.107Z,13.67
2019-02-08T05:56:24.409Z,11.10
2019-02-08T05:58:53.816Z,13.10
2019-02-08T06:01:23.219Z,15.10
2019-02-08T06:03:52.660Z,13.90
2019-02-08T06:06:22.075Z,10.50
2019-02-08T06:08:51.417Z,14.57
2019-02-08T06:11:20.814Z,16.73
2019-02-08T06:13:50.147Z,14.00
2019-02-08T06:16:19.514Z,13.30
2019-02-08T06:18:48.902Z,18.37
2019-02-08T06:21:18.272Z,13.03
2019-02-08T06:23:47.680Z,16.07
2019-02-08T06:26:17.068Z,16.00
2019-02-08T06:28:46.433Z,15.33
2019-02-08T06:31:15.819Z,16.90
2019-02-08T06:33:45.180Z,10.30
2019-02-08T06:36:14.580Z,12.50
2019-02-08T06:38:45.981Z,16.33
2019-02-08T06:41:15.342Z,13.13
2019-02-08T06:43:44.766Z,13.60
2019-02-08T06:46:14.154Z,15.47
2019-02-08T06:48:44.087Z,14.47
2019-02-08T06:51:13.493Z,16.00
2019-02-08T06:53:42.822Z,14.13
2019-02-08T06:56:31.202Z,13.27
2019-02-08T06:59:22.720Z,10.43
2019-02-08T07:02:11.087Z,13.37
2019-02-08T07:04:58.935Z,14.73
2019-02-08T07:07:47.296Z,13.07
2019-02-08T07:10:38.568Z,14.67
2019-02-08T07:13:14.638Z,13.27
2019-02-08T07:16:18.143Z,12.93
2019-02-08T07:19:09.509Z,13.97
2019-02-08T07:24:47.592Z,14.23
2019-02-08T07:27:29.469Z,13.07
2019-02-08T07:30:24.134Z,8.80
2019-02-08T07:33:06.534Z,12.27
2019-02-08T07:35:53.939Z,12.53
2019-02-08T07:38:51.917Z,11.93
2019-02-08T07:41:42.342Z,14.17
2019-02-08T07:44:27.040Z,9.30
2019-02-08T07:47:04.427Z,12.37
2019-02-08T07:49:42.629Z,13.53
2019-02-08T07:52:38.278Z,15.50
2019-02-08T07:55:36.904Z,16.60
2019-02-08T07:58:25.332Z,10.80
2019-02-08T08:01:29.855Z,9.63
2019-02-08T08:04:15.537Z,15.37
2019-02-08T08:07:03.898Z,11.17
2019-02-08T08:09:45.169Z,10.07
2019-02-08T08:12:28.611Z,12.23
2019-02-08T08:15:18.360Z,8.27
2019-02-08T08:18:22.305Z,11.30
2019-02-08T08:21:14.009Z,7.40
2019-02-08T08:24:03.135Z,8.37
2019-02-08T08:26:50.290Z,12.00
2019-02-08T08:29:31.789Z,12.10
2019-02-08T08:32:14.250Z,7.70
2019-02-08T08:35:11.088Z,11.33
2019-02-08T08:38:27.627Z,11.13
2019-02-08T08:41:39.595Z,9.40
2019-02-08T08:44:55.010Z,8.33
2019-02-08T08:48:05.706Z,9.10
2019-02-08T08:51:28.699Z,7.73
2019-02-08T08:54:57.433Z,8.73
2019-02-08T09:01:02.226Z,8.40
2019-02-08T09:03:52.521Z,12.30
2019-02-08T09:07:16.401Z,9.20
2019-02-08T09:10:27.443Z,6.83
2019-02-08T09:13:32.895Z,9.20
2019-02-08T09:16:52.386Z,8.43
2019-02-08T09:19:58.366Z,8.63
2019-02-08T09:23:02.570Z,6.30
2019-02-08T09:25:59.632Z,4.93
2019-02-08T09:29:15.161Z,13.10
2019-02-08T09:32:28.509Z,14.97
2019-02-08T09:35:33.414Z,7.57
2019-02-08T09:38:42.769Z,8.07
2019-02-08T09:41:44.035Z,8.63
2019-02-08T09:45:00.103Z,7.40
2019-02-08T09:48:04.565Z,5.90
2019-02-08T09:51:24.097Z,6.97
2019-02-08T09:54:39.610Z,5.73
2019-02-08T09:57:58.038Z,6.13
2019-02-08T10:00:53.241Z,6.87
2019-02-08T10:03:58.251Z,7.93
2019-02-08T10:07:01.040Z,4.87
2019-02-08T10:10:08.109Z,4.80
2019-02-08T10:13:13.387Z,5.67
2019-02-08T10:16:27.178Z,5.10
2019-02-08T10:19:23.554Z,5.70
2019-02-08T10:22:17.391Z,6.13
2019-02-08T10:25:26.299Z,5.30
2019-02-08T10:28:33.382Z,4.93
2019-02-08T10:31:39.761Z,6.53
2019-02-08T10:34:55.783Z,5.13
2019-02-08T10:38:11.265Z,4.03
2019-02-08T10:41:36.823Z,4.20
2019-02-08T10:44:56.067Z,4.50
2019-02-08T10:48:17.772Z,6.67
2019-02-08T10:51:31.248Z,3.57
2019-02-08T10:54:44.586Z,4.30
2019-02-08T10:58:00.460Z,5.70
2019-02-08T11:01:03.125Z,4.63
2019-02-08T11:04:13.417Z,5.60
2019-02-08T11:07:08.203Z,4.73
2019-02-08T11:10:19.509Z,5.17
2019-02-08T11:13:25.211Z,5.20
2019-02-08T11:16:37.373Z,4.37
2019-02-08T11:19:23.718Z,4.63
2019-02-08T11:21:54.046Z,4.93
2019-02-08T11:24:25.100Z,4.17
2019-02-08T11:26:55.511Z,4.10
2019-02-08T11:29:43.934Z,3.03
2019-02-08T11:32:13.331Z,3.50
2019-02-08T11:34:42.720Z,5.20
2019-02-08T11:37:12.343Z,5.30
2019-02-08T11:39:41.696Z,4.53
2019-02-08T11:42:10.950Z,6.10
2019-02-08T11:44:40.325Z,4.30
2019-02-08T11:47:09.698Z,3.17
2019-02-08T11:49:39.105Z,4.80
2019-02-08T11:52:08.399Z,2.77
2019-02-08T11:54:37.775Z,3.07
2019-02-08T11:57:07.069Z,2.20
2019-02-08T11:59:36.391Z,2.70
2019-02-08T12:02:06.369Z,3.23
2019-02-08T12:04:35.725Z,2.43
2019-02-08T12:07:05.295Z,3.30
2019-02-08T12:09:34.737Z,3.20
2019-02-08T12:12:04.094Z,4.53
2019-02-08T12:14:33.502Z,2.80
2019-02-08T12:17:02.876Z,2.97
2019-02-08T12:19:32.242Z,3.63
2019-02-08T12:22:01.621Z,3.40
2019-02-08T12:24:30.897Z,2.33
2019-02-08T12:27:00.155Z,4.30
2019-02-08T12:29:29.458Z,3.33
2019-02-08T12:31:58.821Z,3.97
2019-02-08T12:34:28.109Z,3.03
2019-02-08T12:36:57.447Z,4.13
2019-02-08T12:39:26.822Z,4.00
2019-02-08T12:41:56.155Z,6.27
2019-02-08T12:44:25.497Z,3.60
2019-02-08T12:46:54.848Z,3.50
2019-02-08T12:49:31.542Z,3.63
2019-02-08T12:52:00.808Z,5.80
2019-02-08T12:54:30.072Z,5.27
2019-02-08T12:56:59.424Z,5.73
2019-02-08T12:59:28.768Z,3.60
2019-02-08T13:01:58.019Z,5.83
2019-02-08T13:04:27.314Z,3.47
2019-02-08T13:06:56.686Z,4.97
2019-02-08T13:09:25.993Z,4.67
2019-02-08T13:11:55.199Z,7.27
2019-02-08T13:14:24.462Z,4.57
2019-02-08T13:16:53.832Z,3.53
2019-02-08T13:19:23.189Z,4.43
2019-02-08T13:21:52.575Z,4.37
2019-02-08T13:24:21.930Z,6.67
2019-02-08T13:26:52.894Z,4.90
2019-02-08T13:29:22.301Z,8.73
2019-02-08T13:31:51.650Z,5.27
2019-02-08T13:34:21.009Z,6.17
2019-02-08T13:36:50.382Z,5.50
2019-02-08T13:39:19.730Z,5.13
2019-02-08T13:41:49.063Z,6.20
2019-02-08T13:44:18.390Z,5.57
2019-02-08T13:46:47.792Z,8.90
2019-02-08T13:49:17.071Z,8.47
2019-02-08T13:51:46.414Z,9.77
2019-02-08T13:54:15.790Z,5.57
2019-02-08T13:56:45.116Z,8.90
2019-02-08T13:59:14.439Z,8.00
2019-02-08T14:01:43.834Z,9.53
2019-02-08T14:04:13.231Z,8.90
2019-02-08T14:06:42.602Z,7.63
2019-02-08T14:09:12.069Z,6.87
2019-02-08T14:11:41.533Z,6.00
2019-02-08T14:14:11.116Z,7.43
2019-02-08T14:16:40.473Z,7.03
2019-02-08T14:19:09.881Z,6.03
2019-02-08T14:21:39.174Z,7.40
2019-02-08T14:24:08.509Z,6.20
2019-02-08T14:26:37.794Z,8.53
2019-02-08T14:29:07.102Z,5.20
2019-02-08T14:31:36.478Z,5.80
2019-02-08T14:34:05.891Z,5.80
2019-02-08T14:36:35.249Z,6.17
2019-02-08T14:39:07.934Z,7.00
2019-02-08T14:41:37.298Z,5.90
2019-02-08T14:44:06.770Z,7.03
2019-02-08T14:46:36.049Z,8.87
2019-02-08T14:49:05.758Z,5.67
2019-02-08T14:51:35.172Z,7.67
2019-02-08T14:54:05.938Z,6.17
2019-02-08T14:56:35.551Z,7.33
2019-02-08T14:59:05.088Z,5.63
2019-02-08T15:01:34.443Z,5.83
2019-02-08T15:04:03.928Z,7.43
2019-02-08T15:06:33.295Z,9.43
2019-02-08T15:09:02.662Z,7.03
2019-02-08T15:11:32.139Z,11.83
2019-02-08T15:14:01.406Z,8.97
2019-02-08T15:16:30.786Z,8.80
2019-02-08T15:19:00.198Z,7.57
2019-02-08T15:21:29.454Z,8.10
2019-02-08T15:23:58.805Z,5.40
2019-02-08T15:26:28.179Z,6.50
2019-02-08T15:28:57.550Z,8.17
2019-02-08T15:31:26.713Z,6.73
2019-02-08T15:33:56.110Z,8.50
2019-02-08T15:36:25.537Z,7.60
2019-02-08T15:38:54.915Z,7.77
2019-02-08T15:41:24.261Z,7.93
2019-02-08T15:43:53.573Z,8.90
2019-02-08T15:46:23.075Z,10.00
2019-02-08T15:48:52.456Z,9.43
2019-02-08T15:51:21.853Z,9.07
2019-02-08T15:53:51.118Z,8.10
2019-02-08T15:56:20.340Z,9.17
2019-02-08T15:58:49.709Z,9.23
2019-02-08T16:01:19.026Z,6.93
2019-02-08T16:03:48.444Z,12.20
2019-02-08T16:06:17.817Z,6.73
2019-02-08T16:08:47.203Z,7.83
2019-02-08T16:11:16.583Z,6.87
2019-02-08T16:13:45.964Z,5.50
2019-02-08T16:16:15.669Z,10.87
2019-02-08T16:18:44.903Z,8.33
2019-02-08T16:21:14.431Z,6.23
2019-02-08T16:23:43.715Z,7.97
2019-02-08T16:26:13.011Z,7.40
2019-02-08T16:28:42.391Z,7.67
2019-02-08T16:31:11.734Z,8.50
2019-02-08T16:33:41.138Z,7.50
2019-02-08T16:36:10.623Z,9.03
2019-02-08T16:38:39.992Z,4.33
2019-02-08T16:41:12.335Z,7.63
2019-02-08T16:43:41.723Z,4.80
2019-02-08T16:46:11.160Z,7.17
2019-02-08T16:48:40.554Z,9.00
2019-02-08T16:51:10.144Z,5.73
2019-02-08T16:53:39.519Z,6.50
2019-02-08T16:56:08.896Z,7.27
2019-02-08T16:58:38.203Z,9.93
2019-02-08T17:01:07.525Z,7.63
2019-02-08T17:03:36.821Z,4.33
2019-02-08T17:06:06.223Z,5.90
2019-02-08T17:08:35.596Z,5.30
2019-02-08T17:11:05.011Z,4.43
2019-02-08T17:13:34.462Z,6.50
2019-02-08T17:16:03.922Z,7.87
2019-02-08T17:18:33.412Z,5.40
2019-02-08T17:21:02.709Z,7.43
2019-02-08T17:23:32.049Z,5.70
2019-02-08T17:26:01.343Z,5.30
2019-02-08T17:28:30.645Z,7.37
2019-02-08T17:30:59.900Z,4.43
2019-02-08T17:33:29.318Z,5.90
2019-02-08T17:35:58.557Z,5.53
2019-02-08T17:38:27.957Z,4.80
2019-02-08T17:40:57.246Z,7.07
2019-02-08T17:43:26.447Z,5.43
2019-02-08T17:45:57.815Z,6.87
2019-02-08T17:48:27.172Z,9.07
2019-02-08T17:50:56.479Z,4.53
2019-02-08T17:53:25.843Z,4.87
2019-02-08T17:55:55.240Z,3.70
2019-02-08T17:58:24.554Z,5.43
2019-02-08T18:00:56.111Z,7.67
2019-02-08T18:03:25.445Z,7.97
2019-02-08T18:05:54.780Z,5.60
2019-02-08T18:08:24.133Z,7.30
2019-02-08T18:10:53.443Z,6.90
2019-02-08T18:13:22.742Z,5.67
2019-02-08T18:15:52.131Z,7.63
2019-02-08T18:18:23.424Z,10.47
2019-02-08T18:20:55.424Z,7.93
2019-02-08T18:23:24.682Z,8.07
2019-02-08T18:25:53.970Z,8.23
2019-02-08T18:28:23.362Z,7.73
2019-02-08T18:30:52.583Z,9.83
2019-02-08T18:33:21.873Z,6.97
2019-02-08T18:35:51.280Z,7.00
2019-02-08T18:38:20.669Z,6.03
2019-02-08T18:40:50.147Z,4.83
2019-02-08T18:43:19.579Z,8.13
2019-02-08T18:45:48.952Z,5.97
2019-02-08T18:48:18.341Z,8.00
2019-02-08T18:50:49.861Z,7.27
2019-02-08T18:53:19.157Z,6.77
2019-02-08T18:55:48.487Z,8.83
2019-02-08T18:58:19.397Z,5.77
2019-02-08T19:00:50.114Z,6.90
2019-02-08T19:03:19.819Z,5.97
2019-02-08T19:05:49.106Z,7.67
2019-02-08T19:08:18.401Z,6.13
2019-02-08T19:10:48.546Z,7.20
2019-02-08T19:13:17.940Z,6.53
2019-02-08T19:15:47.457Z,6.00
2019-02-08T19:18:16.813Z,8.30
2019-02-08T19:20:46.308Z,7.97
2019-02-08T19:23:15.642Z,4.90
2019-02-08T19:25:45.182Z,6.43
2019-02-08T19:28:15.003Z,7.07
2019-02-08T19:30:44.583Z,5.87
2019-02-08T19:33:13.889Z,5.83
2019-02-08T19:35:43.275Z,10.10
2019-02-08T19:38:12.594Z,7.43
2019-02-08T19:40:43.782Z,8.67
2019-02-08T19:43:13.774Z,8.50
2019-02-08T19:45:43.280Z,7.97
2019-02-08T19:48:12.683Z,6.93
2019-02-08T19:50:43.458Z,9.67
2019-02-08T19:53:13.042Z,9.53
2019-02-08T19:55:43.032Z,7.50
2019-02-08T19:58:12.646Z,6.30
2019-02-08T20:00:42.763Z,7.77
2019-02-08T20:03:12.250Z,7.33
2019-02-08T20:05:41.711Z,6.23
2019-02-08T20:08:12.795Z,6.80
2019-02-08T20:10:43.867Z,5.40
2019-02-08T20:13:14.000Z,8.10
2019-02-08T20:15:43.334Z,8.43
2019-02-08T20:18:13.025Z,8.17
2019-02-08T20:20:42.350Z,5.47
2019-02-08T20:23:11.731Z,6.13
2019-02-08T20:25:41.014Z,8.43
2019-02-08T20:28:10.397Z,6.93
2019-02-08T20:30:39.771Z,7.13
2019-02-08T20:33:09.048Z,7.13
2019-02-08T20:35:38.354Z,8.07
2019-02-08T20:38:08.610Z,4.93
2019-02-08T20:40:56.946Z,7.77
2019-02-08T20:43:26.243Z,6.83
2019-02-08T20:45:55.608Z,7.47
2019-02-08T20:48:24.875Z,6.50
2019-02-08T20:50:54.175Z,7.97
2019-02-08T20:53:23.630Z,5.80
2019-02-08T20:55:53.607Z,7.47
2019-02-08T20:58:22.984Z,6.60
2019-02-08T21:00:53.601Z,7.40
2019-02-08T21:03:24.904Z,8.73
2019-02-08T21:05:54.255Z,6.80
2019-02-08T21:08:23.808Z,11.57
2019-02-08T21:10:53.108Z,6.07
2019-02-08T21:13:22.499Z,10.63
2019-02-08T21:15:51.885Z,9.57
2019-02-08T21:18:21.260Z,7.20
2019-02-08T21:20:50.598Z,6.50
2019-02-08T21:23:19.952Z,7.47
2019-02-08T21:25:52.127Z,9.03
2019-02-08T21:28:23.044Z,8.03
2019-02-08T21:30:52.340Z,11.33
2019-02-08T21:33:21.623Z,11.47
2019-02-08T21:35:50.992Z,9.17
2019-02-08T21:38:20.402Z,9.43
2019-02-08T21:40:49.782Z,5.70
2019-02-08T21:43:19.198Z,6.00
2019-02-08T21:45:48.671Z,6.10
2019-02-08T21:48:18.000Z,11.50
2019-02-08T21:50:47.373Z,7.97
2019-02-08T21:53:16.789Z,7.17
2019-02-08T21:55:46.051Z,7.00
2019-02-08T21:58:15.434Z,7.13
2019-02-08T22:00:45.019Z,9.53
2019-02-08T22:03:14.312Z,9.50
2019-02-08T22:05:55.531Z,6.93
2019-02-08T22:08:24.864Z,7.97
2019-02-08T22:10:54.335Z,9.67
2019-02-08T22:13:23.710Z,6.70
2019-02-08T22:15:53.063Z,6.90
2019-02-08T22:18:22.382Z,12.23
2019-02-08T22:20:51.671Z,8.17
2019-02-08T22:23:20.943Z,8.07
2019-02-08T22:25:50.364Z,9.80
2019-02-08T22:28:19.644Z,7.63
2019-02-08T22:30:48.985Z,7.90
2019-02-08T22:33:18.355Z,8.80
2019-02-08T22:35:47.741Z,7.77
2019-02-08T22:38:17.097Z,6.63
2019-02-08T22:40:46.404Z,12.17
2019-02-08T22:43:15.665Z,10.27
2019-02-08T22:45:44.957Z,6.17
2019-02-08T22:48:14.231Z,8.30
2019-02-08T22:50:43.498Z,8.27
2019-02-08T22:53:12.722Z,9.73
2019-02-08T22:55:42.064Z,10.03
2019-02-08T22:58:11.513Z,10.23
2019-02-08T23:01:12.248Z,6.80
2019-02-08T23:03:42.908Z,6.50
2019-02-08T23:06:12.187Z,6.87
2019-02-08T23:08:41.478Z,9.40
2019-02-08T23:11:10.856Z,6.80
2019-02-08T23:13:40.226Z,9.47
2019-02-08T23:16:09.506Z,11.03
2019-02-08T23:18:38.837Z,9.30
2019-02-08T23:21:08.211Z,9.33
2019-02-08T23:23:37.557Z,9.53
2019-02-08T23:26:07.009Z,9.47
2019-02-08T23:28:36.406Z,7.90
2019-02-08T23:31:06.212Z,7.37
2019-02-08T23:33:35.575Z,11.67
2019-02-08T23:36:06.195Z,6.53
2019-02-08T23:38:35.599Z,5.53
2019-02-08T23:41:05.049Z,8.50
2019-02-08T23:43:34.472Z,5.40
2019-02-08T23:46:03.922Z,10.00
2019-02-08T23:48:33.292Z,6.27
2019-02-08T23:51:02.611Z,5.47
2019-02-08T23:53:31.984Z,9.07
2019-02-08T23:56:01.370Z,6.13
2019-02-08T23:58:30.723Z,6.67
